Main page


Airports :

Kish, Iran

Kish International Airport

latitude: 26-31-36N, longitude: 053-58-54E, elevation: 30 m

Current weather observation

The report was made 1 hour and 1 minutes ago, at 09:00 UTC
Wind 24 kt from the West/Northwest
Temperature 25°C
Humidity 54%
Pressure 1010 hPa
Visibility 10 km or more
no clouds below 1500 m and no cumulonimbus

METAR: OIBK 180900Z 30024KT CAVOK 25/15 Q1010

Time: 13:31 (10:01 UTC)


The report was made 4 hours and 1 minutes ago, at 06:00 UTC
Forecast valid from 18 at 06 UTC to 19 at 12 UTC
Wind 16 kt from the Northwest
Visibility: 3500 m
Few clouds at a height of 3000 ft
from 18 at 06 UTC to 18 at 18 UTC
Wind 17 kt from the Northwest with gusts up to 27 kt
Visibility: 2000 m
Few clouds at a height of 3500 ft, Cumulonimbus.
Scattered clouds at a height of 4000 ft
Probability 30%
from 18 at 06 UTC to 18 at 12 UTC
Visibility: 1500 m

TAF: OIBK 180600Z 1806/1912 32008MPS 3500 HZ/SA FEW030 TEMPO 1806/1818 32009G14MPS 2000 SA FEW035CB SCT040 PROB30 1806/1812 1500 SA

Weather observations and forecasts of more than 4000 airports (METAR and TAF reports).

The available stations are represented by yellow and red dots on the map.

Hover mouse over dot to see the name of the station.

Then click to see weather observations and forecasts.

To change the map : click on the green buttons with a black cross to zoom in, on the green button with a dash to zoom out, or on the green arrows for adjacent maps.